Time;durP1;ratioP1;P1;durP2;ratioP2;P2;SDS_P1;SDS_P2;PMS_P1;PMS_P2;Temp;Humidity;BMP_temperature;BMP_pressure;BME280_temperature;BME280_humidity;BME280_pressure;Samples;Min_cycle;Max_cycle;Signal;HPM_P1;HPM_P2
2022/08/26 00:01:01;;;;;;;1.58;1.10;;;28.30;39.70;;;;;;6001096;29;20041;-71
2022/08/26 00:04:02;;;;;;;2.88;1.50;;;28.30;39.80;;;;;;6006242;29;20373;-71
2022/08/26 00:07:04;;;;;;;2.72;1.30;;;28.30;39.80;;;;;;6010551;29;20053;-72
2022/08/26 00:10:06;;;;;;;2.47;1.30;;;28.30;39.70;;;;;;5991645;29;20034;-73
2022/08/26 00:13:09;;;;;;;4.68;1.40;;;28.40;39.70;;;;;;6003140;29;20388;-72
2022/08/26 00:16:11;;;;;;;5.97;1.60;;;28.40;39.50;;;;;;6000472;29;20047;-72
2022/08/26 00:19:12;;;;;;;2.50;1.38;;;28.50;38.80;;;;;;5978006;29;20127;-71
2022/08/26 00:22:13;;;;;;;1.45;1.35;;;28.60;38.40;;;;;;5992761;29;20071;-72
2022/08/26 00:25:15;;;;;;;2.10;1.10;;;28.70;37.90;;;;;;5989252;29;20038;-73
2022/08/26 00:28:17;;;;;;;2.05;1.17;;;28.80;37.50;;;;;;6013417;29;20045;-72
2022/08/26 00:31:18;;;;;;;1.95;1.20;;;28.90;37.20;;;;;;6008018;29;20264;-73
2022/08/26 00:34:19;;;;;;;1.30;1.20;;;29.10;36.90;;;;;;5990917;29;20053;-73
2022/08/26 00:37:20;;;;;;;3.45;1.30;;;29.10;36.60;;;;;;5994113;29;20056;-73
2022/08/26 00:40:29;;;;;;;1.60;1.15;;;29.20;36.50;;;;;;6007698;29;20049;-73
2022/08/26 00:43:33;;;;;;;1.95;1.13;;;29.20;36.40;;;;;;5976950;29;20044;-73
2022/08/26 00:46:39;;;;;;;1.27;1.10;;;29.20;36.30;;;;;;5990247;29;20041;-73
2022/08/26 00:49:43;;;;;;;1.55;1.35;;;29.20;36.40;;;;;;5991454;29;20041;-73
2022/08/26 00:52:45;;;;;;;1.38;1.10;;;29.30;36.60;;;;;;5992993;29;20046;-73
2022/08/26 00:56:01;;;;;;;2.20;1.30;;;29.20;36.60;;;;;;6008973;29;20065;-73
2022/08/26 00:59:07;;;;;;;4.88;1.00;;;29.20;36.80;;;;;;5976957;29;20122;-73
2022/08/26 01:02:09;;;;;;;2.83;1.35;;;29.10;36.90;;;;;;5978392;29;20102;-73
2022/08/26 01:05:10;;;;;;;1.90;1.13;;;29.10;37.60;;;;;;6009837;29;20048;-73
2022/08/26 01:08:12;;;;;;;4.10;1.10;;;29.00;38.20;;;;;;6010647;29;20042;-73
2022/08/26 01:11:15;;;;;;;1.17;1.02;;;28.70;38.50;;;;;;5994046;29;20038;-73
2022/08/26 01:14:18;;;;;;;3.42;1.17;;;28.60;38.90;;;;;;5994646;29;20145;-72
2022/08/26 01:17:19;;;;;;;2.85;1.33;;;28.50;39.00;;;;;;6015703;29;20266;-73
2022/08/26 01:20:48;;;;;;;11.45;2.25;;;28.60;39.20;;;;;;6008020;29;20357;-72
2022/08/26 01:23:51;;;;;;;1.05;1.00;;;28.50;39.10;;;;;;5981855;29;20129;-72
2022/08/26 01:27:02;;;;;;;13.45;1.38;;;28.50;38.90;;;;;;6008639;29;20074;-73
2022/08/26 01:30:04;;;;;;;3.08;1.40;;;28.60;39.00;;;;;;5988469;29;20049;-73
2022/08/26 01:33:11;;;;;;;2.67;1.02;;;28.60;39.10;;;;;;5995779;29;20046;-73
2022/08/26 01:36:14;;;;;;;1.33;1.23;;;28.60;39.20;;;;;;6011682;29;20102;-73
2022/08/26 01:39:16;;;;;;;3.47;1.27;;;28.70;39.20;;;;;;6013036;29;20448;-72
2022/08/26 01:42:19;;;;;;;1.50;1.30;;;28.70;39.20;;;;;;5995271;29;20038;-72
2022/08/26 01:45:24;;;;;;;1.92;1.80;;;28.80;39.20;;;;;;6012849;29;20049;-74
2022/08/26 01:48:30;;;;;;;8.10;1.48;;;28.80;39.10;;;;;;6021939;29;20103;-72
2022/08/26 01:51:35;;;;;;;2.30;1.38;;;28.90;39.10;;;;;;5993793;29;20056;-73
2022/08/26 01:54:37;;;;;;;1.27;1.17;;;28.90;39.00;;;;;;6010408;29;20457;-73
2022/08/26 01:57:39;;;;;;;1.65;1.30;;;28.90;38.90;;;;;;6015246;29;20037;-73
2022/08/26 02:00:40;;;;;;;2.17;1.40;;;29.00;38.70;;;;;;6012050;29;20464;-73
2022/08/26 02:03:57;;;;;;;1.45;1.30;;;29.00;38.70;;;;;;6009664;29;20042;-73
2022/08/26 02:07:04;;;;;;;;;;;28.90;38.70;;;;;;6010964;29;20563;-73
2022/08/26 02:10:06;;;;;;;1.52;1.20;;;29.00;38.70;;;;;;6010334;29;20430;-73
2022/08/26 02:13:10;;;;;;;2.55;1.20;;;29.00;38.60;;;;;;6012086;29;20476;-73
2022/08/26 02:16:14;;;;;;;3.72;1.10;;;29.00;38.80;;;;;;6009643;29;20046;-72
2022/08/26 02:19:19;;;;;;;9.10;1.60;;;28.90;38.80;;;;;;6010975;29;20041;-72
2022/08/26 02:22:22;;;;;;;1.85;1.10;;;28.90;38.90;;;;;;6010563;29;20038;-73
2022/08/26 02:25:48;;;;;;;2.70;1.13;;;28.90;38.90;;;;;;6008821;29;20102;-72
2022/08/26 02:29:02;;;;;;;1.85;1.25;;;28.90;39.10;;;;;;6011752;29;20037;-71
2022/08/26 02:32:07;;;;;;;4.00;1.60;;;28.90;39.10;;;;;;5994206;29;20045;-74
2022/08/26 02:35:11;;;;;;;7.13;1.50;;;28.80;39.20;;;;;;5994231;29;20055;-74
2022/08/26 02:38:12;;;;;;;1.15;0.95;;;28.70;39.30;;;;;;5996731;29;20078;-74
2022/08/26 02:41:13;;;;;;;1.92;1.40;;;28.70;39.40;;;;;;6011644;29;20110;-73
2022/08/26 02:44:14;;;;;;;1.52;1.42;;;28.70;39.60;;;;;;6011453;29;20057;-74
2022/08/26 02:47:16;;;;;;;2.38;1.40;;;28.70;39.90;;;;;;5994143;29;20030;-75
2022/08/26 02:50:17;;;;;;;1.75;1.30;;;28.70;40.10;;;;;;6009769;29;20121;-74
2022/08/26 02:53:19;;;;;;;1.92;1.30;;;28.60;40.30;;;;;;5991721;29;20045;-75
2022/08/26 02:56:20;;;;;;;5.25;1.70;;;28.60;40.40;;;;;;5994193;29;20049;-74
2022/08/26 02:59:21;;;;;;;4.82;1.35;;;28.60;40.60;;;;;;5997237;29;20034;-74
2022/08/26 03:02:22;;;;;;;1.48;1.35;;;28.50;40.70;;;;;;5994060;29;20136;-74
2022/08/26 03:05:24;;;;;;;1.83;1.50;;;28.50;40.90;;;;;;5994253;29;20042;-75
2022/08/26 03:08:25;;;;;;;2.35;1.50;;;28.50;41.20;;;;;;5992315;29;20079;-75
2022/08/26 03:11:26;;;;;;;4.60;1.52;;;28.50;41.40;;;;;;5981730;29;20041;-74
2022/08/26 03:14:28;;;;;;;2.05;1.88;;;28.50;41.50;;;;;;5993386;29;20102;-75
2022/08/26 03:17:29;;;;;;;5.97;1.65;;;28.50;41.70;;;;;;5997138;29;20034;-75
2022/08/26 03:20:31;;;;;;;2.33;1.50;;;28.40;41.80;;;;;;5984436;29;20041;-74
2022/08/26 03:23:33;;;;;;;2.45;1.38;;;28.40;42.00;;;;;;5997393;29;20052;-74
2022/08/26 03:26:34;;;;;;;5.78;1.60;;;28.40;42.20;;;;;;5999809;29;20038;-74
2022/08/26 03:32:55;;;;;;;1.90;1.27;;;28.40;43.10;;;;;;6008407;29;20060;-74
2022/08/26 03:35:57;;;;;;;2.92;1.33;;;28.40;42.60;;;;;;6010725;29;20480;-74
2022/08/26 03:38:58;;;;;;;2.28;1.40;;;28.30;42.70;;;;;;6009538;29;20086;-74
2022/08/26 03:41:59;;;;;;;2.05;1.58;;;28.30;42.80;;;;;;6009561;29;20491;-74
2022/08/26 03:45:01;;;;;;;3.15;1.70;;;28.20;43.00;;;;;;5994451;29;20423;-74
2022/08/26 03:48:02;;;;;;;4.78;1.40;;;28.20;43.20;;;;;;6009615;29;20049;-75
2022/08/26 03:51:10;;;;;;;1.85;1.50;;;28.20;43.30;;;;;;6009286;29;20460;-76
2022/08/26 03:54:11;;;;;;;2.65;1.20;;;28.10;43.30;;;;;;6010769;29;20034;-76
2022/08/26 03:57:12;;;;;;;5.78;1.40;;;28.10;43.50;;;;;;6008695;29;20030;-76
2022/08/26 04:00:15;;;;;;;4.20;1.33;;;28.10;43.60;;;;;;6008986;29;20038;-75
2022/08/26 04:03:56;;;;;;;4.60;1.33;;;28.10;43.70;;;;;;6010034;29;20120;-73
2022/08/26 04:06:44;;;;;;;7.25;1.38;;;28.00;43.80;;;;;;6023893;29;20042;-73
2022/08/26 04:09:45;;;;;;;5.53;1.35;;;27.90;43.90;;;;;;6008179;29;20037;-73
2022/08/26 04:12:46;;;;;;;2.10;1.30;;;27.90;44.00;;;;;;5992846;29;20103;-73
2022/08/26 04:15:47;;;;;;;3.38;1.20;;;27.90;44.10;;;;;;6012407;29;20050;-73
2022/08/26 04:18:48;;;;;;;2.10;1.40;;;27.80;44.10;;;;;;6010175;29;20052;-73
2022/08/26 04:21:54;;;;;;;2.38;1.38;;;27.80;44.10;;;;;;6009792;29;20053;-74
2022/08/26 04:24:55;;;;;;;1.40;1.27;;;27.80;44.30;;;;;;6009668;29;20046;-74
2022/08/26 04:27:56;;;;;;;4.35;1.35;;;27.80;44.40;;;;;;5995793;29;20057;-75
2022/08/26 04:30:58;;;;;;;2.08;1.27;;;27.70;44.40;;;;;;5992073;29;20042;-74
2022/08/26 04:33:59;;;;;;;2.33;1.30;;;27.70;44.50;;;;;;5994029;29;20052;-74
2022/08/26 04:37:00;;;;;;;2.83;1.35;;;27.70;45.40;;;;;;5993490;29;20066;-74
2022/08/26 04:40:02;;;;;;;3.47;1.45;;;27.60;44.80;;;;;;5979424;29;20042;-75
2022/08/26 04:43:04;;;;;;;2.55;1.40;;;27.60;44.80;;;;;;6008417;29;20376;-75
2022/08/26 04:46:05;;;;;;;1.73;1.30;;;27.60;44.80;;;;;;6009383;29;20133;-75
2022/08/26 04:49:07;;;;;;;2.78;1.80;;;27.60;44.80;;;;;;5977281;29;20057;-75
2022/08/26 04:52:09;;;;;;;5.03;1.40;;;27.60;44.90;;;;;;6009131;29;20049;-74
2022/08/26 04:55:10;;;;;;;3.08;1.75;;;27.60;44.90;;;;;;5989469;29;20045;-75
2022/08/26 04:58:14;;;;;;;7.75;1.50;;;27.60;45.00;;;;;;5992594;29;20042;-75
2022/08/26 05:01:15;;;;;;;4.55;1.50;;;27.60;45.20;;;;;;5993755;29;20041;-76
2022/08/26 05:04:18;;;;;;;3.65;1.60;;;27.50;45.20;;;;;;5990713;29;20041;-74
2022/08/26 05:07:20;;;;;;;2.78;1.38;;;27.60;45.30;;;;;;6010136;29;20495;-74
2022/08/26 05:10:21;;;;;;;6.68;1.58;;;27.50;45.30;;;;;;6009666;29;20417;-74
2022/08/26 05:13:25;;;;;;;4.63;1.88;;;27.50;45.40;;;;;;6009333;29;20049;-76
2022/08/26 05:16:26;;;;;;;3.90;1.40;;;27.60;45.40;;;;;;5993747;29;20048;-75
2022/08/26 05:19:27;;;;;;;2.97;1.80;;;27.60;45.40;;;;;;5978635;29;20038;-75
2022/08/26 05:22:28;;;;;;;1.88;1.38;;;27.60;45.50;;;;;;6009850;29;20101;-75
2022/08/26 05:25:30;;;;;;;2.45;1.40;;;27.60;45.50;;;;;;6009557;29;20119;-75
2022/08/26 05:28:31;;;;;;;1.77;1.23;;;27.50;45.40;;;;;;6009182;29;20102;-75
2022/08/26 05:31:34;;;;;;;6.95;1.65;;;27.60;45.50;;;;;;5993918;29;20139;-76
2022/08/26 05:34:36;;;;;;;1.65;1.30;;;27.50;45.50;;;;;;6009429;29;20045;-75
2022/08/26 05:37:37;;;;;;;5.20;1.48;;;27.50;45.60;;;;;;5993894;29;20042;-75
2022/08/26 05:40:41;;;;;;;3.10;1.48;;;27.50;45.70;;;;;;6008642;29;20050;-75
2022/08/26 05:43:43;;;;;;;2.35;1.30;;;27.50;45.90;;;;;;5993652;29;20061;-73
2022/08/26 05:46:44;;;;;;;2.60;1.70;;;27.40;45.80;;;;;;6009711;29;20069;-74
2022/08/26 05:49:45;;;;;;;7.63;1.33;;;27.40;45.90;;;;;;6008538;29;20056;-72
2022/08/26 05:52:48;;;;;;;2.95;1.70;;;27.40;45.80;;;;;;6006523;29;20042;-73
2022/08/26 05:55:51;;;;;;;4.38;1.40;;;27.50;46.00;;;;;;6008434;29;20499;-74
2022/08/26 05:58:54;;;;;;;2.88;1.40;;;27.50;46.00;;;;;;5975992;29;20376;-74
2022/08/26 06:01:55;;;;;;;2.97;1.40;;;27.50;46.10;;;;;;5991811;29;20368;-74
2022/08/26 06:04:57;;;;;;;3.10;1.60;;;27.60;46.00;;;;;;5979610;29;20135;-75
2022/08/26 06:08:10;;;;;;;1.88;1.20;;;27.60;46.00;;;;;;5992051;29;20537;-75
2022/08/26 06:11:14;;;;;;;4.03;1.40;;;27.70;45.90;;;;;;6007144;29;20057;-73
2022/08/26 06:14:16;;;;;;;14.80;1.60;;;27.70;45.90;;;;;;5992117;29;20449;-73
2022/08/26 06:17:17;;;;;;;4.22;1.40;;;27.80;45.80;;;;;;5992839;29;20067;-73
2022/08/26 06:20:19;;;;;;;2.42;1.52;;;27.80;45.80;;;;;;6012925;29;20045;-74
2022/08/26 06:26:41;;;;;;;2.97;1.50;;;27.80;45.80;;;;;;6008679;29;20053;-74
2022/08/26 06:29:42;;;;;;;3.42;1.65;;;27.90;45.80;;;;;;6008938;29;20049;-74
2022/08/26 06:32:44;;;;;;;2.72;1.85;;;27.90;45.80;;;;;;6008637;29;20048;-74
2022/08/26 06:35:46;;;;;;;2.92;1.58;;;27.90;45.90;;;;;;5992631;29;20034;-73
2022/08/26 06:38:49;;;;;;;6.47;1.63;;;27.80;46.00;;;;;;6009170;29;20046;-74
2022/08/26 06:41:50;;;;;;;10.98;1.75;;;27.80;46.10;;;;;;6008427;29;20084;-73
2022/08/26 06:44:52;;;;;;;6.38;1.50;;;27.70;46.20;;;;;;5990933;29;20050;-74
2022/08/26 06:47:53;;;;;;;7.63;1.65;;;27.70;46.30;;;;;;6008632;29;20045;-74
2022/08/26 06:51:11;;;;;;;7.43;1.50;;;27.70;46.40;;;;;;5988040;29;20719;-77
2022/08/26 06:54:12;;;;;;;3.10;1.60;;;27.80;46.40;;;;;;5992324;29;20052;-73
2022/08/26 06:57:13;;;;;;;2.42;1.67;;;27.80;46.20;;;;;;6008366;29;20107;-73
2022/08/26 07:00:17;;;;;;;4.15;1.60;;;27.90;46.30;;;;;;5991596;29;20037;-73
2022/08/26 07:03:18;;;;;;;3.88;2.00;;;27.90;46.20;;;;;;5973609;29;20037;-73
2022/08/26 07:06:19;;;;;;;5.95;1.40;;;28.00;46.20;;;;;;5974903;29;20464;-73
2022/08/26 07:09:21;;;;;;;9.60;1.48;;;27.90;46.10;;;;;;5988531;29;20098;-72
2022/08/26 07:12:23;;;;;;;3.28;1.48;;;28.00;46.10;;;;;;5976209;29;20425;-73
2022/08/26 07:15:27;;;;;;;5.45;1.70;;;28.00;46.00;;;;;;6007079;29;20376;-73
2022/08/26 07:18:33;;;;;;;13.57;1.90;;;28.10;46.10;;;;;;5988327;29;20144;-76
2022/08/26 07:21:35;;;;;;;3.15;1.60;;;28.10;46.00;;;;;;5991144;29;20052;-74
2022/08/26 07:24:40;;;;;;;11.50;1.98;;;28.10;45.90;;;;;;5990893;29;20053;-74
2022/08/26 07:27:41;;;;;;;4.28;1.30;;;28.20;45.90;;;;;;5990628;29;20049;-74
2022/08/26 07:30:42;;;;;;;3.60;1.70;;;28.30;45.80;;;;;;6007474;29;20041;-74
2022/08/26 07:33:44;;;;;;;2.72;1.80;;;28.30;45.60;;;;;;5990087;29;20391;-73
2022/08/26 07:36:45;;;;;;;1.92;1.30;;;28.50;45.50;;;;;;5991878;29;20034;-76
2022/08/26 07:39:46;;;;;;;3.25;1.27;;;28.70;45.20;;;;;;5994330;29;20053;-75
2022/08/26 07:42:47;;;;;;;4.45;1.48;;;28.80;45.00;;;;;;6008552;29;20640;-74
2022/08/26 07:45:48;;;;;;;2.20;1.38;;;28.90;44.90;;;;;;5991556;29;20049;-75
2022/08/26 07:48:50;;;;;;;2.65;1.60;;;28.90;44.80;;;;;;5989031;29;20056;-75
2022/08/26 07:51:53;;;;;;;3.42;1.85;;;28.90;44.80;;;;;;5999231;29;20199;-73
2022/08/26 07:54:56;;;;;;;5.47;1.60;;;28.90;44.90;;;;;;6016727;29;20045;-74
2022/08/26 07:57:58;;;;;;;4.90;1.80;;;28.70;44.90;;;;;;5966237;29;20077;-75
2022/08/26 08:00:59;;;;;;;4.13;1.33;;;28.70;45.10;;;;;;6009610;29;20049;-75
2022/08/26 08:04:00;;;;;;;7.07;1.60;;;28.60;45.30;;;;;;6011023;29;20042;-74
2022/08/26 08:07:01;;;;;;;1.75;1.38;;;28.50;45.40;;;;;;5977669;29;20102;-75
2022/08/26 08:10:03;;;;;;;4.40;1.90;;;28.50;45.50;;;;;;6009662;29;20094;-73
2022/08/26 08:13:06;;;;;;;4.50;1.73;;;28.50;45.50;;;;;;6010878;29;20038;-74
2022/08/26 08:16:07;;;;;;;1.95;1.48;;;28.50;45.50;;;;;;5994246;29;20038;-74
2022/08/26 08:19:08;;;;;;;2.60;1.88;;;28.60;45.50;;;;;;5993644;29;20045;-75
2022/08/26 08:22:10;;;;;;;7.47;1.88;;;28.60;45.60;;;;;;5994609;29;20137;-75
2022/08/26 08:25:12;;;;;;;8.90;1.60;;;28.70;45.60;;;;;;5991379;29;20061;-74
2022/08/26 08:28:14;;;;;;;2.53;1.70;;;28.80;45.40;;;;;;6009962;29;20034;-74
2022/08/26 08:31:25;;;;;;;4.32;1.80;;;28.90;45.20;;;;;;5991664;29;20106;-74
2022/08/26 08:34:27;;;;;;;6.38;1.63;;;29.10;44.90;;;;;;6006853;29;20473;-73
2022/08/26 08:37:29;;;;;;;3.45;1.60;;;29.40;44.60;;;;;;5991336;29;20034;-74
2022/08/26 08:40:30;;;;;;;5.28;1.92;;;29.60;44.10;;;;;;5991502;29;20041;-74
2022/08/26 08:43:39;;;;;;;2.72;1.70;;;29.90;43.70;;;;;;5973807;29;20038;-75
2022/08/26 08:46:43;;;;;;;1.98;1.63;;;30.00;43.30;;;;;;5984837;29;20046;-73
2022/08/26 08:49:45;;;;;;;1.73;1.55;;;30.20;43.10;;;;;;6004894;29;20034;-75
2022/08/26 08:52:56;;;;;;;2.88;1.80;;;30.30;42.80;;;;;;6005615;29;20071;-76
2022/08/26 08:56:10;;;;;;;8.23;1.60;;;30.30;42.70;;;;;;6006717;29;20085;-74
2022/08/26 08:59:23;;;;;;;3.83;1.85;;;30.30;42.60;;;;;;5987656;29;20062;-76
2022/08/26 09:02:31;;;;;;;4.60;1.98;;;30.40;42.60;;;;;;5991547;29;20049;-75
2022/08/26 09:05:42;;;;;;;5.68;1.77;;;30.50;42.40;;;;;;6009253;29;20038;-75
2022/08/26 09:08:48;;;;;;;8.13;2.20;;;30.60;42.20;;;;;;5988642;29;20058;-75
2022/08/26 09:11:50;;;;;;;6.30;1.92;;;30.60;41.90;;;;;;5990925;29;20125;-75
2022/08/26 09:14:56;;;;;;;4.32;1.77;;;30.70;41.90;;;;;;5990215;29;20046;-75
2022/08/26 09:18:13;;;;;;;6.45;2.03;;;30.80;41.70;;;;;;6008113;29;20045;-77
2022/08/26 09:21:17;;;;;;;5.32;1.98;;;31.00;41.40;;;;;;5989300;29;20042;-76
2022/08/26 09:24:18;;;;;;;3.40;2.17;;;31.20;41.10;;;;;;5994318;29;20026;-77
2022/08/26 09:27:49;;;;;;;4.22;1.63;;;31.40;40.90;;;;;;6006971;29;20038;-77
2022/08/26 09:30:59;;;;;;;10.70;2.00;;;31.40;40.70;;;;;;6007756;29;20052;-77
2022/08/26 09:34:20;;;;;;;7.13;1.95;;;31.60;40.60;;;;;;5990902;29;20053;-76
2022/08/26 09:37:42;;;;;;;4.43;2.08;;;31.70;40.10;;;;;;6007740;29;20038;-78
2022/08/26 09:41:01;;;;;;;4.70;1.80;;;31.80;40.00;;;;;;5997816;29;20050;-76
2022/08/26 09:44:15;;;;;;;3.05;2.03;;;31.80;40.00;;;;;;5975023;29;20038;-75
2022/08/26 09:47:25;;;;;;;3.00;1.83;;;31.70;40.20;;;;;;5975250;29;20034;-78
2022/08/26 09:50:28;;;;;;;5.70;2.35;;;31.60;40.90;;;;;;6004480;29;20049;-76
2022/08/26 09:53:35;;;;;;;5.72;2.08;;;31.60;40.20;;;;;;5983054;29;20045;-76
2022/08/26 09:56:38;;;;;;;11.25;1.90;;;31.60;40.20;;;;;;5990069;29;20422;-77
2022/08/26 09:59:39;;;;;;;2.10;1.67;;;31.60;40.20;;;;;;6011733;29;20049;-76
2022/08/26 10:02:43;;;;;;;7.50;1.83;;;31.50;40.80;;;;;;5978693;29;20042;-77
2022/08/26 10:05:54;;;;;;;8.25;2.00;;;31.50;40.20;;;;;;6006143;29;20038;-77
2022/08/26 10:09:00;;;;;;;3.25;1.95;;;31.50;40.30;;;;;;6009206;29;20038;-76
2022/08/26 10:12:15;;;;;;;4.53;1.92;;;31.50;40.20;;;;;;5992746;29;20057;-78
2022/08/26 10:15:20;;;;;;;3.83;2.30;;;31.50;40.10;;;;;;5987109;29;20042;-75
2022/08/26 10:18:35;;;;;;;9.85;1.95;;;31.50;39.90;;;;;;6003322;29;20065;-75
2022/08/26 10:22:35;;;;;;;9.13;2.40;;;31.40;40.10;;;;;;5992239;29;20623;-75
2022/08/26 10:25:53;;;;;;;3.03;1.92;;;31.50;40.20;;;;;;5853566;30;20052;-75
2022/08/26 10:29:07;;;;;;;4.25;2.05;;;31.70;39.90;;;;;;5878520;30;20068;-74
2022/08/26 10:32:20;;;;;;;2.80;1.98;;;31.80;39.70;;;;;;5875368;30;20048;-77
2022/08/26 10:35:22;;;;;;;4.28;2.58;;;31.90;39.60;;;;;;5895306;30;20044;-77
2022/08/26 10:38:38;;;;;;;3.40;1.60;;;32.00;39.50;;;;;;5895005;30;21545;-77
2022/08/26 10:41:42;;;;;;;5.57;2.15;;;32.00;39.20;;;;;;5894446;30;20047;-76
2022/08/26 10:44:46;;;;;;;3.58;1.73;;;32.00;39.10;;;;;;5895844;30;20726;-76
2022/08/26 10:47:54;;;;;;;6.80;2.03;;;32.10;39.00;;;;;;5886978;30;20059;-76
2022/08/26 10:50:56;;;;;;;6.25;2.03;;;32.30;38.60;;;;;;5896792;30;20036;-77
2022/08/26 10:54:04;;;;;;;2.67;1.80;;;32.40;38.50;;;;;;5875967;30;20118;-77
2022/08/26 10:57:25;;;;;;;8.85;2.17;;;32.40;38.50;;;;;;6005118;29;20088;-76
2022/08/26 11:04:07;;;;;;;3.35;1.80;;;32.90;37.80;;;;;;6009030;29;20461;-77
2022/08/26 11:07:28;;;;;;;5.55;1.80;;;33.20;37.20;;;;;;6007362;29;20045;-76
2022/08/26 11:10:41;;;;;;;4.47;2.13;;;33.40;36.80;;;;;;6004641;29;20034;-75
2022/08/26 11:14:03;;;;;;;7.45;2.28;;;33.60;36.50;;;;;;6004807;29;20137;-75
2022/08/26 11:17:10;;;;;;;4.38;1.85;;;33.60;36.50;;;;;;6001068;29;20110;-75
2022/08/26 11:20:32;;;;;;;2.50;1.90;;;33.70;36.30;;;;;;6010121;29;20050;-75
2022/08/26 11:23:44;;;;;;;12.23;2.33;;;33.50;36.40;;;;;;5979905;29;20124;-77
2022/08/26 11:26:46;;;;;;;3.33;1.92;;;33.40;36.50;;;;;;6008069;29;20056;-78
2022/08/26 11:30:07;;;;;;;15.15;3.90;;;33.20;36.70;;;;;;5993265;29;20384;-76
2022/08/26 11:33:08;;;;;;;4.07;2.38;;;33.00;36.90;;;;;;6006275;29;20042;-77
2022/08/26 11:36:26;;;;;;;2.75;1.90;;;32.90;37.10;;;;;;6015747;29;20337;-76
2022/08/26 11:39:32;;;;;;;5.40;2.05;;;32.90;36.90;;;;;;6008241;29;20049;-78
2022/08/26 11:42:42;;;;;;;5.50;2.20;;;32.90;36.70;;;;;;6006899;29;20548;-78
2022/08/26 11:45:57;;;;;;;4.82;2.40;;;32.70;36.70;;;;;;5989931;29;20049;-79
2022/08/26 11:49:04;;;;;;;10.43;2.10;;;32.50;36.70;;;;;;6006862;29;20046;-77
2022/08/26 11:52:21;;;;;;;4.10;1.83;;;32.30;36.60;;;;;;6018558;29;20153;-76
2022/08/26 11:55:22;;;;;;;2.47;1.67;;;32.10;36.60;;;;;;5989161;29;20041;-77
2022/08/26 11:58:26;;;;;;;5.72;1.63;;;32.00;36.70;;;;;;6027602;29;20038;-77
2022/08/26 12:01:34;;;;;;;5.47;1.92;;;32.00;36.70;;;;;;6003531;29;20081;-77
2022/08/26 12:04:40;;;;;;;3.83;2.03;;;32.10;36.60;;;;;;6000727;29;20044;-79
2022/08/26 12:07:47;;;;;;;3.00;1.75;;;32.40;36.20;;;;;;6018303;29;20064;-82
2022/08/26 12:10:48;;;;;;;2.92;2.28;;;32.90;35.30;;;;;;6007240;29;20053;-76
2022/08/26 12:13:58;;;;;;;8.65;2.30;;;33.60;34.50;;;;;;6008822;29;20045;-79
2022/08/26 12:17:12;;;;;;;11.98;2.08;;;34.10;33.40;;;;;;6015994;29;20460;-77
2022/08/26 12:24:08;;;;;;;3.92;2.00;;;34.90;32.30;;;;;;5909841;30;20128;-78
2022/08/26 12:27:25;;;;;;;6.13;1.95;;;35.50;31.20;;;;;;5860390;30;20055;-78
2022/08/26 12:30:26;;;;;;;3.30;1.90;;;35.90;30.60;;;;;;5884103;30;20040;-78
2022/08/26 12:33:28;;;;;;;3.88;2.28;;;36.30;30.00;;;;;;5871476;30;20044;-78
2022/08/26 12:36:37;;;;;;;12.57;2.17;;;36.80;29.50;;;;;;5870801;30;20136;-78
2022/08/26 12:39:41;;;;;;;4.35;1.95;;;37.20;29.30;;;;;;5891768;30;20033;-77
2022/08/26 12:42:43;;;;;;;7.97;2.60;;;37.40;28.90;;;;;;5891809;30;20055;-77
2022/08/26 12:45:56;;;;;;;14.15;2.13;;;37.30;28.90;;;;;;5890193;30;20494;-76
2022/08/26 12:49:00;;;;;;;10.57;2.30;;;37.10;29.10;;;;;;5861372;30;20227;-75
2022/08/26 12:52:04;;;;;;;3.90;1.98;;;36.60;29.60;;;;;;5888307;30;20078;-75
2022/08/26 12:55:19;;;;;;;2.58;1.95;;;36.10;30.00;;;;;;5893917;30;20040;-77
2022/08/26 12:58:25;;;;;;;3.50;1.98;;;35.90;30.30;;;;;;5874552;30;20490;-74
2022/08/26 13:01:26;;;;;;;4.70;2.35;;;35.90;30.20;;;;;;5991560;29;20061;-74
2022/08/26 13:04:41;;;;;;;2.35;1.77;;;36.10;30.10;;;;;;5989132;29;20038;-73
2022/08/26 13:07:42;;;;;;;2.00;1.80;;;37.00;29.40;;;;;;5974020;29;20041;-74
2022/08/26 13:10:46;;;;;;;4.57;2.20;;;37.40;28.90;;;;;;6009008;29;20472;-74
2022/08/26 13:13:51;;;;;;;5.53;2.00;;;37.60;28.70;;;;;;5974311;29;20046;-74
2022/08/26 13:16:53;;;;;;;6.60;2.08;;;37.30;28.80;;;;;;5989107;29;20524;-74
2022/08/26 13:19:54;;;;;;;3.58;2.10;;;37.10;29.10;;;;;;6006342;29;20515;-75
2022/08/26 13:22:58;;;;;;;7.78;1.92;;;38.00;28.40;;;;;;5989013;29;20042;-75
2022/08/26 13:26:00;;;;;;;2.65;1.80;;;38.80;27.50;;;;;;5987819;29;20054;-75
2022/08/26 13:29:02;;;;;;;2.78;2.00;;;38.90;27.30;;;;;;5988226;29;20069;-80
2022/08/26 13:32:05;;;;;;;6.50;2.22;;;39.30;26.90;;;;;;6017540;29;20049;-84
2022/08/26 13:35:07;;;;;;;9.50;2.00;;;40.00;26.60;;;;;;6013501;29;20436;-76
2022/08/26 13:38:13;;;;;;;5.75;1.95;;;40.60;26.00;;;;;;6012049;29;20042;-78
2022/08/26 13:41:15;;;;;;;5.80;2.53;;;40.50;26.00;;;;;;6005899;29;20049;-78
2022/08/26 13:44:17;;;;;;;9.77;2.17;;;39.90;26.60;;;;;;6011382;29;20033;-78
2022/08/26 13:47:19;;;;;;;13.32;2.00;;;39.80;26.80;;;;;;6012568;29;20034;-84
2022/08/26 13:50:20;;;;;;;5.80;1.80;;;40.00;26.70;;;;;;6025890;29;20094;-76
2022/08/26 13:53:22;;;;;;;6.03;2.15;;;40.00;26.60;;;;;;6011686;29;20049;-86
2022/08/26 13:56:28;;;;;;;8.90;2.17;;;39.80;26.60;;;;;;6014579;29;20037;-77
2022/08/26 13:59:31;;;;;;;6.03;1.90;;;39.80;26.50;;;;;;6017927;29;20045;-77
2022/08/26 14:02:33;;;;;;;4.05;1.90;;;40.00;26.40;;;;;;5994687;29;20042;-75
2022/08/26 14:05:34;;;;;;;3.45;2.00;;;40.10;26.30;;;;;;5993248;29;20478;-76
2022/08/26 14:08:36;;;;;;;9.68;2.20;;;39.80;26.50;;;;;;6003990;29;20045;-76
2022/08/26 14:11:37;;;;;;;7.15;2.40;;;39.60;26.90;;;;;;6007871;29;20849;-76
2022/08/26 14:14:39;;;;;;;2.90;1.70;;;40.00;26.50;;;;;;6006925;29;20314;-74
2022/08/26 14:17:40;;;;;;;1.95;1.70;;;40.00;26.50;;;;;;6012580;29;20034;-75
2022/08/26 14:20:48;;;;;;;5.30;2.17;;;39.50;26.80;;;;;;6015458;29;20442;-75
2022/08/26 14:23:49;;;;;;;;;;;38.80;27.30;;;;;;6027741;29;20041;-74
2022/08/26 14:26:50;;;;;;;7.00;1.88;;;38.40;27.90;;;;;;6008436;29;19935;-76
2022/08/26 14:29:51;;;;;;;3.70;1.83;;;38.10;28.30;;;;;;5994268;29;20042;-74
2022/08/26 14:32:56;;;;;;;3.13;1.73;;;37.40;28.80;;;;;;6013703;29;20256;-75
2022/08/26 14:36:26;;;;;;;2.22;1.48;;;36.70;29.50;;;;;;6008196;29;20046;-75
2022/08/26 14:39:19;;;;;;;6.68;1.77;;;36.10;30.10;;;;;;6008716;29;20038;-76
2022/08/26 14:42:24;;;;;;;5.90;1.73;;;35.70;30.80;;;;;;6009964;29;20042;-74
2022/08/26 14:45:26;;;;;;;2.25;1.77;;;35.20;31.20;;;;;;6008832;29;20042;-75
2022/08/26 14:48:27;;;;;;;3.13;1.80;;;34.90;31.70;;;;;;6009021;29;20058;-75
2022/08/26 14:51:29;;;;;;;2.65;1.48;;;34.70;32.00;;;;;;6010995;29;20038;-75
2022/08/26 14:54:30;;;;;;;2.80;1.80;;;34.50;32.20;;;;;;6008423;29;20042;-75
2022/08/26 14:57:46;;;;;;;2.42;1.67;;;34.50;32.60;;;;;;6019247;29;20085;-77
2022/08/26 15:00:58;;;;;;;7.47;1.85;;;34.30;32.90;;;;;;5960710;29;20032;-79
2022/08/26 15:04:00;;;;;;;5.53;1.80;;;34.10;33.00;;;;;;6021597;29;20364;-79
2022/08/26 15:07:03;;;;;;;3.90;1.90;;;34.00;33.40;;;;;;6003643;29;20121;-79
2022/08/26 15:10:07;;;;;;;4.05;1.75;;;33.80;33.60;;;;;;6022031;29;20121;-81
2022/08/26 15:13:08;;;;;;;16.05;2.28;;;33.80;33.80;;;;;;6009572;29;20052;-79
2022/08/26 15:16:09;;;;;;;2.60;1.70;;;33.70;34.10;;;;;;6017094;29;20452;-74
2022/08/26 15:19:10;;;;;;;4.45;2.10;;;33.70;34.40;;;;;;6032991;29;20033;-78
2022/08/26 15:22:12;;;;;;;4.70;2.00;;;33.40;34.60;;;;;;6006920;29;20049;-78
2022/08/26 15:25:13;;;;;;;5.38;2.08;;;33.20;34.90;;;;;;6006811;29;20601;-76
2022/08/26 15:28:15;;;;;;;8.65;1.80;;;33.10;35.30;;;;;;5989769;29;20038;-79
2022/08/26 15:31:18;;;;;;;10.98;2.00;;;33.00;35.50;;;;;;5990188;29;20488;-75
2022/08/26 15:34:20;;;;;;;2.55;1.70;;;32.80;35.70;;;;;;5992733;29;20038;-75
2022/08/26 15:37:21;;;;;;;3.00;1.67;;;32.80;35.90;;;;;;6001481;29;20034;-78
2022/08/26 15:40:25;;;;;;;2.75;1.92;;;32.80;36.10;;;;;;6006556;29;20367;-76
2022/08/26 15:43:26;;;;;;;5.32;1.83;;;32.80;36.20;;;;;;6003913;29;20094;-76
2022/08/26 15:46:29;;;;;;;2.60;2.00;;;32.80;36.10;;;;;;6002310;29;20042;-77
2022/08/26 15:49:30;;;;;;;5.88;1.90;;;32.90;36.10;;;;;;6003846;29;20040;-76
2022/08/26 15:52:31;;;;;;;3.83;1.83;;;32.90;36.10;;;;;;6002659;29;20417;-77
2022/08/26 15:55:34;;;;;;;4.38;1.70;;;32.80;36.00;;;;;;6016650;29;20052;-77
2022/08/26 15:58:36;;;;;;;3.35;2.00;;;32.80;36.00;;;;;;6019787;29;20038;-78
2022/08/26 16:01:38;;;;;;;8.15;2.17;;;33.30;35.70;;;;;;6021439;29;20042;-76
2022/08/26 16:04:39;;;;;;;5.18;1.63;;;34.20;34.40;;;;;;6022146;29;20040;-76
2022/08/26 16:07:41;;;;;;;5.13;2.10;;;35.50;32.50;;;;;;6012630;29;20129;-75
2022/08/26 16:10:44;;;;;;;2.90;1.88;;;36.50;30.70;;;;;;6003207;29;20041;-79
2022/08/26 16:13:46;;;;;;;1.90;1.80;;;36.60;30.10;;;;;;5984745;29;20042;-79
2022/08/26 16:16:48;;;;;;;3.65;1.90;;;35.80;31.00;;;;;;6024158;29;20469;-80